sensor_id;sensor_type;location;lat;lon;timestamp;P1;durP1;ratioP1;P2;durP2;ratioP2
40284;SDS011;25997;50.214;19.354;2024-03-23T00:56:39;42.85;;;31.83;;
40284;SDS011;25997;50.214;19.354;2024-03-23T00:59:41;40.53;;;30.55;;
40284;SDS011;25997;50.214;19.354;2024-03-23T01:02:43;33.45;;;26.55;;
40284;SDS011;25997;50.214;19.354;2024-03-23T01:05:45;30.17;;;23.80;;
40284;SDS011;25997;50.214;19.354;2024-03-23T01:08:49;30.90;;;25.27;;
40284;SDS011;25997;50.214;19.354;2024-03-23T01:11:52;34.67;;;24.25;;
40284;SDS011;25997;50.214;19.354;2024-03-23T01:14:54;32.08;;;23.65;;
40284;SDS011;25997;50.214;19.354;2024-03-23T01:17:56;33.17;;;25.80;;
40284;SDS011;25997;50.214;19.354;2024-03-23T01:20:58;38.88;;;28.38;;
40284;SDS011;25997;50.214;19.354;2024-03-23T01:24:00;35.30;;;25.70;;
40284;SDS011;25997;50.214;19.354;2024-03-23T01:27:04;34.17;;;24.40;;
40284;SDS011;25997;50.214;19.354;2024-03-23T01:30:06;31.08;;;24.55;;
40284;SDS011;25997;50.214;19.354;2024-03-23T01:33:09;30.15;;;23.15;;
40284;SDS011;25997;50.214;19.354;2024-03-23T01:36:11;33.22;;;26.50;;
40284;SDS011;25997;50.214;19.354;2024-03-23T01:39:13;30.35;;;23.50;;
40284;SDS011;25997;50.214;19.354;2024-03-23T01:42:16;83.03;;;54.97;;
40284;SDS011;25997;50.214;19.354;2024-03-23T01:45:19;37.35;;;25.02;;
40284;SDS011;25997;50.214;19.354;2024-03-23T01:48:20;28.60;;;23.50;;
40284;SDS011;25997;50.214;19.354;2024-03-23T01:51:23;28.13;;;21.52;;
40284;SDS011;25997;50.214;19.354;2024-03-23T01:54:25;37.65;;;28.63;;
40284;SDS011;25997;50.214;19.354;2024-03-23T01:57:28;32.92;;;23.90;;
40284;SDS011;25997;50.214;19.354;2024-03-23T02:00:31;49.60;;;34.50;;
40284;SDS011;25997;50.214;19.354;2024-03-23T02:03:33;48.58;;;33.08;;
40284;SDS011;25997;50.214;19.354;2024-03-23T02:06:35;45.83;;;33.60;;
40284;SDS011;25997;50.214;19.354;2024-03-23T02:09:37;121.55;;;71.82;;
40284;SDS011;25997;50.214;19.354;2024-03-23T02:12:40;34.50;;;28.92;;
40284;SDS011;25997;50.214;19.354;2024-03-23T02:15:43;43.22;;;30.70;;
40284;SDS011;25997;50.214;19.354;2024-03-23T02:18:45;36.28;;;29.35;;
40284;SDS011;25997;50.214;19.354;2024-03-23T02:21:47;35.20;;;27.80;;
40284;SDS011;25997;50.214;19.354;2024-03-23T02:24:51;33.88;;;28.27;;
40284;SDS011;25997;50.214;19.354;2024-03-23T02:27:53;34.15;;;27.08;;
40284;SDS011;25997;50.214;19.354;2024-03-23T02:30:55;50.63;;;42.03;;
40284;SDS011;25997;50.214;19.354;2024-03-23T02:33:57;39.03;;;32.20;;
40284;SDS011;25997;50.214;19.354;2024-03-23T02:36:59;73.18;;;65.18;;
40284;SDS011;25997;50.214;19.354;2024-03-23T02:40:02;39.15;;;33.38;;
40284;SDS011;25997;50.214;19.354;2024-03-23T02:43:05;37.67;;;30.48;;
40284;SDS011;25997;50.214;19.354;2024-03-23T02:46:08;38.13;;;27.90;;
40284;SDS011;25997;50.214;19.354;2024-03-23T02:49:09;87.35;;;54.53;;
40284;SDS011;25997;50.214;19.354;2024-03-23T02:52:12;36.15;;;29.10;;
40284;SDS011;25997;50.214;19.354;2024-03-23T02:55:15;57.88;;;37.45;;
40284;SDS011;25997;50.214;19.354;2024-03-23T02:58:17;55.58;;;39.70;;
40284;SDS011;25997;50.214;19.354;2024-03-23T03:01:20;40.15;;;30.50;;
40284;SDS011;25997;50.214;19.354;2024-03-23T03:04:21;31.05;;;24.35;;
40284;SDS011;25997;50.214;19.354;2024-03-23T03:07:23;33.00;;;28.55;;
40284;SDS011;25997;50.214;19.354;2024-03-23T03:10:27;31.70;;;26.30;;
40284;SDS011;25997;50.214;19.354;2024-03-23T03:13:29;35.33;;;27.38;;
40284;SDS011;25997;50.214;19.354;2024-03-23T03:16:32;38.42;;;28.80;;
40284;SDS011;25997;50.214;19.354;2024-03-23T03:19:35;31.60;;;25.33;;
40284;SDS011;25997;50.214;19.354;2024-03-23T03:22:37;30.00;;;24.75;;
40284;SDS011;25997;50.214;19.354;2024-03-23T03:25:40;30.85;;;24.77;;
40284;SDS011;25997;50.214;19.354;2024-03-23T03:28:42;34.13;;;27.08;;
40284;SDS011;25997;50.214;19.354;2024-03-23T03:31:49;38.35;;;32.85;;
40284;SDS011;25997;50.214;19.354;2024-03-23T03:34:51;41.67;;;36.00;;
40284;SDS011;25997;50.214;19.354;2024-03-23T03:37:53;55.42;;;49.63;;
40284;SDS011;25997;50.214;19.354;2024-03-23T03:40:57;50.28;;;42.10;;
40284;SDS011;25997;50.214;19.354;2024-03-23T03:43:59;49.15;;;40.63;;
40284;SDS011;25997;50.214;19.354;2024-03-23T03:47:02;40.08;;;32.33;;
40284;SDS011;25997;50.214;19.354;2024-03-23T03:50:06;39.22;;;29.88;;
40284;SDS011;25997;50.214;19.354;2024-03-23T03:53:09;35.03;;;27.45;;
40284;SDS011;25997;50.214;19.354;2024-03-23T03:56:13;35.60;;;27.75;;
40284;SDS011;25997;50.214;19.354;2024-03-23T03:59:14;30.33;;;26.80;;
40284;SDS011;25997;50.214;19.354;2024-03-23T04:02:17;33.30;;;26.98;;
40284;SDS011;25997;50.214;19.354;2024-03-23T04:05:19;38.58;;;28.13;;
40284;SDS011;25997;50.214;19.354;2024-03-23T04:08:21;34.22;;;27.58;;
40284;SDS011;25997;50.214;19.354;2024-03-23T04:11:25;35.40;;;29.52;;
40284;SDS011;25997;50.214;19.354;2024-03-23T04:14:27;36.50;;;27.30;;
40284;SDS011;25997;50.214;19.354;2024-03-23T04:17:30;37.47;;;29.52;;
40284;SDS011;25997;50.214;19.354;2024-03-23T04:20:33;35.00;;;27.88;;
40284;SDS011;25997;50.214;19.354;2024-03-23T04:23:36;35.22;;;28.75;;
40284;SDS011;25997;50.214;19.354;2024-03-23T04:26:42;38.65;;;27.27;;
40284;SDS011;25997;50.214;19.354;2024-03-23T04:29:46;35.50;;;28.27;;
40284;SDS011;25997;50.214;19.354;2024-03-23T04:32:49;32.20;;;27.55;;
40284;SDS011;25997;50.214;19.354;2024-03-23T04:35:51;37.30;;;29.38;;
40284;SDS011;25997;50.214;19.354;2024-03-23T04:38:53;37.40;;;30.02;;
40284;SDS011;25997;50.214;19.354;2024-03-23T04:41:57;41.05;;;28.90;;
40284;SDS011;25997;50.214;19.354;2024-03-23T04:44:59;33.33;;;26.45;;
40284;SDS011;25997;50.214;19.354;2024-03-23T04:48:02;34.80;;;27.70;;
40284;SDS011;25997;50.214;19.354;2024-03-23T04:51:05;33.65;;;25.13;;
40284;SDS011;25997;50.214;19.354;2024-03-23T04:54:07;30.60;;;24.77;;
40284;SDS011;25997;50.214;19.354;2024-03-23T04:57:11;29.55;;;24.40;;
40284;SDS011;25997;50.214;19.354;2024-03-23T05:00:21;31.25;;;23.95;;
40284;SDS011;25997;50.214;19.354;2024-03-23T05:03:23;32.20;;;24.75;;
40284;SDS011;25997;50.214;19.354;2024-03-23T05:06:26;27.70;;;23.73;;
40284;SDS011;25997;50.214;19.354;2024-03-23T05:09:27;26.02;;;23.27;;
40284;SDS011;25997;50.214;19.354;2024-03-23T05:12:32;33.30;;;24.17;;
40284;SDS011;25997;50.214;19.354;2024-03-23T05:15:33;29.80;;;23.92;;
40284;SDS011;25997;50.214;19.354;2024-03-23T05:18:36;29.58;;;22.85;;
40284;SDS011;25997;50.214;19.354;2024-03-23T05:21:38;27.98;;;23.23;;
40284;SDS011;25997;50.214;19.354;2024-03-23T05:24:40;32.58;;;23.83;;
40284;SDS011;25997;50.214;19.354;2024-03-23T05:27:43;29.95;;;24.85;;
40284;SDS011;25997;50.214;19.354;2024-03-23T05:30:49;28.85;;;25.05;;
40284;SDS011;25997;50.214;19.354;2024-03-23T05:33:51;33.95;;;27.52;;
40284;SDS011;25997;50.214;19.354;2024-03-23T05:36:54;36.50;;;29.33;;
40284;SDS011;25997;50.214;19.354;2024-03-23T05:39:55;32.85;;;29.33;;
40284;SDS011;25997;50.214;19.354;2024-03-23T05:42:59;37.60;;;31.33;;
40284;SDS011;25997;50.214;19.354;2024-03-23T05:46:00;38.70;;;30.48;;
40284;SDS011;25997;50.214;19.354;2024-03-23T05:49:03;44.70;;;38.17;;
40284;SDS011;25997;50.214;19.354;2024-03-23T05:52:04;48.90;;;40.50;;
40284;SDS011;25997;50.214;19.354;2024-03-23T05:55:07;42.50;;;36.45;;
40284;SDS011;25997;50.214;19.354;2024-03-23T05:58:10;40.22;;;35.45;;
40284;SDS011;25997;50.214;19.354;2024-03-23T06:01:13;45.28;;;37.38;;
40284;SDS011;25997;50.214;19.354;2024-03-23T06:04:15;220.23;;;186.30;;
40284;SDS011;25997;50.214;19.354;2024-03-23T06:07:16;83.97;;;68.70;;
40284;SDS011;25997;50.214;19.354;2024-03-23T06:10:19;72.45;;;55.15;;
40284;SDS011;25997;50.214;19.354;2024-03-23T06:13:22;80.10;;;60.25;;
40284;SDS011;25997;50.214;19.354;2024-03-23T06:16:30;86.88;;;60.22;;
40284;SDS011;25997;50.214;19.354;2024-03-23T06:19:31;83.72;;;65.55;;
40284;SDS011;25997;50.214;19.354;2024-03-23T06:22:34;82.00;;;60.85;;
40284;SDS011;25997;50.214;19.354;2024-03-23T06:25:35;68.03;;;51.92;;
40284;SDS011;25997;50.214;19.354;2024-03-23T06:28:39;62.15;;;54.22;;
40284;SDS011;25997;50.214;19.354;2024-03-23T06:31:40;63.85;;;57.25;;
40284;SDS011;25997;50.214;19.354;2024-03-23T06:34:43;75.20;;;58.22;;
40284;SDS011;25997;50.214;19.354;2024-03-23T06:37:46;69.63;;;55.25;;
40284;SDS011;25997;50.214;19.354;2024-03-23T06:40:47;92.47;;;68.80;;
40284;SDS011;25997;50.214;19.354;2024-03-23T06:43:52;74.97;;;55.88;;
40284;SDS011;25997;50.214;19.354;2024-03-23T06:46:55;76.78;;;60.72;;
40284;SDS011;25997;50.214;19.354;2024-03-23T06:49:56;84.05;;;64.18;;
40284;SDS011;25997;50.214;19.354;2024-03-23T06:52:59;80.05;;;64.05;;
40284;SDS011;25997;50.214;19.354;2024-03-23T06:56:02;74.22;;;58.38;;
40284;SDS011;25997;50.214;19.354;2024-03-23T06:59:07;59.88;;;51.10;;
40284;SDS011;25997;50.214;19.354;2024-03-23T07:02:08;47.92;;;40.10;;
40284;SDS011;25997;50.214;19.354;2024-03-23T07:05:11;42.95;;;36.97;;
40284;SDS011;25997;50.214;19.354;2024-03-23T07:08:12;38.83;;;34.33;;
40284;SDS011;25997;50.214;19.354;2024-03-23T07:11:19;41.08;;;36.42;;
40284;SDS011;25997;50.214;19.354;2024-03-23T07:14:22;39.95;;;33.80;;
40284;SDS011;25997;50.214;19.354;2024-03-23T07:17:25;43.65;;;37.03;;
40284;SDS011;25997;50.214;19.354;2024-03-23T07:20:27;44.15;;;39.05;;
40284;SDS011;25997;50.214;19.354;2024-03-23T07:23:31;38.20;;;34.33;;
40284;SDS011;25997;50.214;19.354;2024-03-23T07:26:32;39.63;;;35.38;;
40284;SDS011;25997;50.214;19.354;2024-03-23T07:29:36;36.50;;;31.88;;
40284;SDS011;25997;50.214;19.354;2024-03-23T07:32:38;37.78;;;31.63;;
40284;SDS011;25997;50.214;19.354;2024-03-23T07:35:40;38.65;;;34.00;;
40284;SDS011;25997;50.214;19.354;2024-03-23T07:38:42;36.05;;;31.40;;
40284;SDS011;25997;50.214;19.354;2024-03-23T07:41:45;36.10;;;32.25;;
40284;SDS011;25997;50.214;19.354;2024-03-23T07:44:49;32.67;;;29.27;;
40284;SDS011;25997;50.214;19.354;2024-03-23T07:47:51;32.78;;;26.83;;
40284;SDS011;25997;50.214;19.354;2024-03-23T07:51:00;29.42;;;25.02;;
40284;SDS011;25997;50.214;19.354;2024-03-23T07:54:04;28.23;;;22.48;;
40284;SDS011;25997;50.214;19.354;2024-03-23T07:57:06;25.48;;;22.48;;
40284;SDS011;25997;50.214;19.354;2024-03-23T08:00:10;24.67;;;22.05;;
40284;SDS011;25997;50.214;19.354;2024-03-23T08:03:13;22.77;;;20.45;;
40284;SDS011;25997;50.214;19.354;2024-03-23T08:06:15;25.13;;;21.30;;
40284;SDS011;25997;50.214;19.354;2024-03-23T08:09:20;25.77;;;22.00;;
40284;SDS011;25997;50.214;19.354;2024-03-23T08:12:21;26.30;;;21.77;;
40284;SDS011;25997;50.214;19.354;2024-03-23T08:15:25;22.70;;;20.10;;
40284;SDS011;25997;50.214;19.354;2024-03-23T08:18:27;23.58;;;20.42;;
40284;SDS011;25997;50.214;19.354;2024-03-23T08:21:30;21.00;;;18.80;;
40284;SDS011;25997;50.214;19.354;2024-03-23T08:24:31;18.50;;;16.70;;
40284;SDS011;25997;50.214;19.354;2024-03-23T08:27:34;19.13;;;16.48;;
40284;SDS011;25997;50.214;19.354;2024-03-23T08:30:36;18.38;;;16.38;;
40284;SDS011;25997;50.214;19.354;2024-03-23T08:33:39;18.83;;;16.50;;
40284;SDS011;25997;50.214;19.354;2024-03-23T08:36:41;18.27;;;16.33;;
40284;SDS011;25997;50.214;19.354;2024-03-23T08:39:43;24.48;;;18.58;;
40284;SDS011;25997;50.214;19.354;2024-03-23T08:42:46;21.02;;;18.80;;
40284;SDS011;25997;50.214;19.354;2024-03-23T08:45:49;25.00;;;20.50;;
40284;SDS011;25997;50.214;19.354;2024-03-23T08:48:51;23.00;;;20.60;;
40284;SDS011;25997;50.214;19.354;2024-03-23T08:51:53;20.65;;;17.23;;
40284;SDS011;25997;50.214;19.354;2024-03-23T08:54:56;17.52;;;15.10;;
40284;SDS011;25997;50.214;19.354;2024-03-23T08:57:58;18.23;;;16.40;;
40284;SDS011;25997;50.214;19.354;2024-03-23T09:01:06;17.45;;;15.63;;
40284;SDS011;25997;50.214;19.354;2024-03-23T09:04:09;18.25;;;16.45;;
40284;SDS011;25997;50.214;19.354;2024-03-23T09:07:11;16.60;;;14.80;;
40284;SDS011;25997;50.214;19.354;2024-03-23T09:10:13;16.85;;;14.98;;
40284;SDS011;25997;50.214;19.354;2024-03-23T09:13:15;15.35;;;13.80;;
40284;SDS011;25997;50.214;19.354;2024-03-23T09:16:19;15.27;;;13.68;;
40284;SDS011;25997;50.214;19.354;2024-03-23T09:19:22;15.63;;;14.02;;
40284;SDS011;25997;50.214;19.354;2024-03-23T09:22:23;15.68;;;13.73;;
40284;SDS011;25997;50.214;19.354;2024-03-23T09:25:26;16.20;;;13.82;;
40284;SDS011;25997;50.214;19.354;2024-03-23T09:28:27;16.80;;;13.73;;
40284;SDS011;25997;50.214;19.354;2024-03-23T09:31:32;15.57;;;11.68;;
40284;SDS011;25997;50.214;19.354;2024-03-23T09:34:34;16.20;;;13.82;;
40284;SDS011;25997;50.214;19.354;2024-03-23T09:37:37;15.77;;;13.90;;
40284;SDS011;25997;50.214;19.354;2024-03-23T09:40:40;16.30;;;13.82;;
40284;SDS011;25997;50.214;19.354;2024-03-23T09:43:43;15.35;;;13.02;;
40284;SDS011;25997;50.214;19.354;2024-03-23T09:46:48;16.08;;;13.65;;
40284;SDS011;25997;50.214;19.354;2024-03-23T09:49:50;16.75;;;14.32;;
40284;SDS011;25997;50.214;19.354;2024-03-23T09:52:53;15.65;;;13.93;;
40284;SDS011;25997;50.214;19.354;2024-03-23T09:55:56;16.70;;;14.05;;
40284;SDS011;25997;50.214;19.354;2024-03-23T09:59:01;18.73;;;15.38;;
40284;SDS011;25997;50.214;19.354;2024-03-23T10:02:06;16.65;;;13.43;;
40284;SDS011;25997;50.214;19.354;2024-03-23T10:05:19;14.85;;;11.90;;
40284;SDS011;25997;50.214;19.354;2024-03-23T10:08:23;14.02;;;11.85;;
40284;SDS011;25997;50.214;19.354;2024-03-23T10:11:26;14.18;;;11.18;;
40284;SDS011;25997;50.214;19.354;2024-03-23T10:14:30;12.35;;;10.85;;
40284;SDS011;25997;50.214;19.354;2024-03-23T10:17:33;12.35;;;11.05;;
40284;SDS011;25997;50.214;19.354;2024-03-23T10:20:35;14.68;;;12.15;;
40284;SDS011;25997;50.214;19.354;2024-03-23T10:23:37;13.13;;;11.82;;
40284;SDS011;25997;50.214;19.354;2024-03-23T10:26:41;12.02;;;10.50;;
40284;SDS011;25997;50.214;19.354;2024-03-23T10:29:42;12.45;;;10.68;;
40284;SDS011;25997;50.214;19.354;2024-03-23T10:32:47;9.93;;;8.77;;
40284;SDS011;25997;50.214;19.354;2024-03-23T10:35:51;10.90;;;9.80;;
40284;SDS011;25997;50.214;19.354;2024-03-23T10:38:54;9.88;;;8.60;;
40284;SDS011;25997;50.214;19.354;2024-03-23T10:41:58;8.63;;;7.72;;
40284;SDS011;25997;50.214;19.354;2024-03-23T10:45:04;10.98;;;8.15;;
40284;SDS011;25997;50.214;19.354;2024-03-23T10:48:09;9.77;;;8.85;;
40284;SDS011;25997;50.214;19.354;2024-03-23T10:51:10;10.30;;;8.35;;
40284;SDS011;25997;50.214;19.354;2024-03-23T10:54:14;9.32;;;8.30;;
40284;SDS011;25997;50.214;19.354;2024-03-23T10:57:17;13.15;;;8.75;;
40284;SDS011;25997;50.214;19.354;2024-03-23T11:00:23;8.98;;;7.85;;
40284;SDS011;25997;50.214;19.354;2024-03-23T11:03:33;8.65;;;7.68;;
40284;SDS011;25997;50.214;19.354;2024-03-23T11:06:37;10.98;;;7.65;;
40284;SDS011;25997;50.214;19.354;2024-03-23T11:09:41;8.13;;;7.32;;
40284;SDS011;25997;50.214;19.354;2024-03-23T11:12:45;7.90;;;7.10;;
40284;SDS011;25997;50.214;19.354;2024-03-23T11:15:48;9.25;;;8.35;;
40284;SDS011;25997;50.214;19.354;2024-03-23T11:18:51;8.68;;;7.78;;
40284;SDS011;25997;50.214;19.354;2024-03-23T11:21:53;10.70;;;9.70;;
40284;SDS011;25997;50.214;19.354;2024-03-23T11:24:55;13.95;;;12.55;;
40284;SDS011;25997;50.214;19.354;2024-03-23T11:27:58;12.10;;;9.20;;
40284;SDS011;25997;50.214;19.354;2024-03-23T11:31:12;14.38;;;12.85;;
40284;SDS011;25997;50.214;19.354;2024-03-23T11:34:17;8.63;;;7.18;;
40284;SDS011;25997;50.214;19.354;2024-03-23T11:37:20;11.55;;;7.97;;
40284;SDS011;25997;50.214;19.354;2024-03-23T11:40:22;9.13;;;8.15;;
40284;SDS011;25997;50.214;19.354;2024-03-23T11:43:24;11.43;;;7.55;;
40284;SDS011;25997;50.214;19.354;2024-03-23T11:46:26;8.45;;;6.97;;
40284;SDS011;25997;50.214;19.354;2024-03-23T11:49:29;8.98;;;6.65;;
40284;SDS011;25997;50.214;19.354;2024-03-23T11:52:32;7.10;;;6.50;;
40284;SDS011;25997;50.214;19.354;2024-03-23T11:55:39;6.55;;;5.95;;
40284;SDS011;25997;50.214;19.354;2024-03-23T11:58:43;8.13;;;6.75;;
40284;SDS011;25997;50.214;19.354;2024-03-23T12:01:49;8.13;;;6.10;;
40284;SDS011;25997;50.214;19.354;2024-03-23T12:04:52;7.80;;;6.40;;
40284;SDS011;25997;50.214;19.354;2024-03-23T12:07:55;7.38;;;6.68;;
40284;SDS011;25997;50.214;19.354;2024-03-23T12:11:04;8.05;;;7.18;;
40284;SDS011;25997;50.214;19.354;2024-03-23T12:14:08;8.05;;;7.10;;
40284;SDS011;25997;50.214;19.354;2024-03-23T12:17:11;9.00;;;6.90;;
40284;SDS011;25997;50.214;19.354;2024-03-23T12:20:14;14.02;;;12.23;;
40284;SDS011;25997;50.214;19.354;2024-03-23T12:23:17;7.63;;;6.70;;
40284;SDS011;25997;50.214;19.354;2024-03-23T12:26:21;10.05;;;8.98;;
40284;SDS011;25997;50.214;19.354;2024-03-23T12:29:24;4.80;;;4.28;;
40284;SDS011;25997;50.214;19.354;2024-03-23T12:32:28;4.97;;;4.47;;
40284;SDS011;25997;50.214;19.354;2024-03-23T12:35:31;6.82;;;5.50;;
40284;SDS011;25997;50.214;19.354;2024-03-23T12:38:34;8.43;;;7.72;;
40284;SDS011;25997;50.214;19.354;2024-03-23T12:41:35;4.97;;;4.45;;
40284;SDS011;25997;50.214;19.354;2024-03-23T12:44:38;5.78;;;4.72;;
40284;SDS011;25997;50.214;19.354;2024-03-23T12:47:40;8.90;;;8.02;;
40284;SDS011;25997;50.214;19.354;2024-03-23T12:50:43;14.48;;;8.27;;
40284;SDS011;25997;50.214;19.354;2024-03-23T12:53:46;11.52;;;10.05;;
40284;SDS011;25997;50.214;19.354;2024-03-23T12:56:47;11.05;;;8.63;;
40284;SDS011;25997;50.214;19.354;2024-03-23T12:59:50;6.70;;;6.10;;
40284;SDS011;25997;50.214;19.354;2024-03-23T13:02:51;9.35;;;6.40;;
40284;SDS011;25997;50.214;19.354;2024-03-23T13:05:55;6.22;;;5.57;;
40284;SDS011;25997;50.214;19.354;2024-03-23T13:08:57;12.65;;;9.43;;
40284;SDS011;25997;50.214;19.354;2024-03-23T13:11:59;5.75;;;5.13;;
40284;SDS011;25997;50.214;19.354;2024-03-23T13:15:01;7.25;;;5.97;;
40284;SDS011;25997;50.214;19.354;2024-03-23T13:18:04;5.85;;;4.65;;
40284;SDS011;25997;50.214;19.354;2024-03-23T13:21:07;11.43;;;9.00;;
40284;SDS011;25997;50.214;19.354;2024-03-23T13:24:09;8.85;;;7.55;;
40284;SDS011;25997;50.214;19.354;2024-03-23T13:27:11;9.90;;;5.68;;
40284;SDS011;25997;50.214;19.354;2024-03-23T13:30:13;17.83;;;14.85;;
40284;SDS011;25997;50.214;19.354;2024-03-23T13:33:15;46.65;;;35.40;;
40284;SDS011;25997;50.214;19.354;2024-03-23T13:36:19;30.35;;;22.13;;
40284;SDS011;25997;50.214;19.354;2024-03-23T13:39:20;10.82;;;6.75;;
40284;SDS011;25997;50.214;19.354;2024-03-23T13:42:22;5.22;;;4.55;;
40284;SDS011;25997;50.214;19.354;2024-03-23T13:45:26;5.68;;;4.63;;
40284;SDS011;25997;50.214;19.354;2024-03-23T13:48:29;5.72;;;4.95;;
40284;SDS011;25997;50.214;19.354;2024-03-23T13:51:31;7.60;;;5.43;;
40284;SDS011;25997;50.214;19.354;2024-03-23T13:54:34;8.30;;;6.10;;
40284;SDS011;25997;50.214;19.354;2024-03-23T13:57:36;5.68;;;4.35;;
40284;SDS011;25997;50.214;19.354;2024-03-23T14:00:38;5.85;;;4.90;;
40284;SDS011;25997;50.214;19.354;2024-03-23T14:03:40;8.70;;;6.03;;
40284;SDS011;25997;50.214;19.354;2024-03-23T14:06:44;28.23;;;14.95;;
40284;SDS011;25997;50.214;19.354;2024-03-23T14:09:47;19.65;;;11.88;;
40284;SDS011;25997;50.214;19.354;2024-03-23T14:12:48;12.93;;;8.57;;
40284;SDS011;25997;50.214;19.354;2024-03-23T14:15:52;10.05;;;6.68;;
40284;SDS011;25997;50.214;19.354;2024-03-23T14:18:54;8.55;;;5.03;;
40284;SDS011;25997;50.214;19.354;2024-03-23T14:21:58;6.63;;;4.70;;
40284;SDS011;25997;50.214;19.354;2024-03-23T14:24:59;20.48;;;18.38;;
40284;SDS011;25997;50.214;19.354;2024-03-23T14:28:02;8.90;;;8.10;;
40284;SDS011;25997;50.214;19.354;2024-03-23T14:31:04;12.05;;;9.25;;
40284;SDS011;25997;50.214;19.354;2024-03-23T14:34:10;10.90;;;8.02;;
40284;SDS011;25997;50.214;19.354;2024-03-23T14:37:13;7.65;;;6.47;;
40284;SDS011;25997;50.214;19.354;2024-03-23T14:40:17;6.78;;;5.45;;
40284;SDS011;25997;50.214;19.354;2024-03-23T14:43:18;10.82;;;9.93;;
40284;SDS011;25997;50.214;19.354;2024-03-23T14:46:21;13.48;;;12.23;;
40284;SDS011;25997;50.214;19.354;2024-03-23T14:49:24;9.85;;;7.95;;
40284;SDS011;25997;50.214;19.354;2024-03-23T14:52:28;4.82;;;3.33;;
40284;SDS011;25997;50.214;19.354;2024-03-23T14:55:30;14.32;;;9.32;;
40284;SDS011;25997;50.214;19.354;2024-03-23T14:58:31;5.78;;;3.63;;
40284;SDS011;25997;50.214;19.354;2024-03-23T15:01:35;7.13;;;4.22;;
40284;SDS011;25997;50.214;19.354;2024-03-23T15:04:37;7.93;;;6.10;;
40284;SDS011;25997;50.214;19.354;2024-03-23T15:07:42;4.10;;;2.92;;
40284;SDS011;25997;50.214;19.354;2024-03-23T15:10:45;7.40;;;6.57;;
40284;SDS011;25997;50.214;19.354;2024-03-23T15:13:49;7.90;;;7.20;;
40284;SDS011;25997;50.214;19.354;2024-03-23T15:16:52;10.90;;;9.75;;
40284;SDS011;25997;50.214;19.354;2024-03-23T15:19:54;14.10;;;12.52;;
40284;SDS011;25997;50.214;19.354;2024-03-23T15:22:58;14.93;;;13.32;;
40284;SDS011;25997;50.214;19.354;2024-03-23T15:26:00;16.63;;;14.73;;
40284;SDS011;25997;50.214;19.354;2024-03-23T15:29:04;34.75;;;30.45;;
40284;SDS011;25997;50.214;19.354;2024-03-23T15:32:12;25.77;;;19.92;;
40284;SDS011;25997;50.214;19.354;2024-03-23T15:35:18;26.63;;;22.58;;
40284;SDS011;25997;50.214;19.354;2024-03-23T15:38:21;23.98;;;19.88;;
40284;SDS011;25997;50.214;19.354;2024-03-23T15:41:24;43.33;;;31.63;;
40284;SDS011;25997;50.214;19.354;2024-03-23T15:44:26;41.65;;;34.95;;
40284;SDS011;25997;50.214;19.354;2024-03-23T15:47:29;62.22;;;47.63;;
40284;SDS011;25997;50.214;19.354;2024-03-23T15:50:31;42.22;;;32.58;;
40284;SDS011;25997;50.214;19.354;2024-03-23T15:53:35;22.48;;;17.73;;
40284;SDS011;25997;50.214;19.354;2024-03-23T15:56:38;21.50;;;16.08;;
40284;SDS011;25997;50.214;19.354;2024-03-23T15:59:42;21.63;;;17.55;;
40284;SDS011;25997;50.214;19.354;2024-03-23T16:02:45;16.90;;;12.52;;
40284;SDS011;25997;50.214;19.354;2024-03-23T16:05:52;17.45;;;14.02;;
40284;SDS011;25997;50.214;19.354;2024-03-23T16:08:56;16.73;;;14.20;;
40284;SDS011;25997;50.214;19.354;2024-03-23T16:11:57;13.48;;;10.55;;
40284;SDS011;25997;50.214;19.354;2024-03-23T16:15:00;23.98;;;21.00;;
40284;SDS011;25997;50.214;19.354;2024-03-23T16:18:01;8.90;;;7.63;;
40284;SDS011;25997;50.214;19.354;2024-03-23T16:21:04;16.67;;;12.05;;
40284;SDS011;25997;50.214;19.354;2024-03-23T16:24:08;18.08;;;16.10;;
40284;SDS011;25997;50.214;19.354;2024-03-23T16:27:11;13.52;;;12.30;;
40284;SDS011;25997;50.214;19.354;2024-03-23T16:30:14;15.25;;;11.43;;
40284;SDS011;25997;50.214;19.354;2024-03-23T16:33:16;11.63;;;9.68;;
40284;SDS011;25997;50.214;19.354;2024-03-23T16:36:18;9.15;;;6.95;;
40284;SDS011;25997;50.214;19.354;2024-03-23T16:39:22;10.57;;;6.50;;
40284;SDS011;25997;50.214;19.354;2024-03-23T16:42:24;8.40;;;6.32;;
40284;SDS011;25997;50.214;19.354;2024-03-23T16:45:26;5.55;;;4.70;;
40284;SDS011;25997;50.214;19.354;2024-03-23T16:48:28;6.43;;;5.28;;
40284;SDS011;25997;50.214;19.354;2024-03-23T16:51:31;6.85;;;5.43;;
40284;SDS011;25997;50.214;19.354;2024-03-23T16:54:33;7.38;;;5.60;;
40284;SDS011;25997;50.214;19.354;2024-03-23T16:57:36;16.00;;;7.40;;
40284;SDS011;25997;50.214;19.354;2024-03-23T17:00:37;10.60;;;7.15;;
40284;SDS011;25997;50.214;19.354;2024-03-23T17:03:40;17.08;;;13.35;;
40284;SDS011;25997;50.214;19.354;2024-03-23T17:06:43;20.75;;;13.90;;
40284;SDS011;25997;50.214;19.354;2024-03-23T17:09:47;11.77;;;10.02;;
40284;SDS011;25997;50.214;19.354;2024-03-23T17:12:50;10.60;;;8.73;;
40284;SDS011;25997;50.214;19.354;2024-03-23T17:15:53;14.43;;;12.90;;
40284;SDS011;25997;50.214;19.354;2024-03-23T17:18:54;21.48;;;17.70;;
40284;SDS011;25997;50.214;19.354;2024-03-23T17:21:57;29.23;;;18.08;;
40284;SDS011;25997;50.214;19.354;2024-03-23T17:24:59;21.33;;;14.77;;
40284;SDS011;25997;50.214;19.354;2024-03-23T17:28:03;22.27;;;17.25;;
40284;SDS011;25997;50.214;19.354;2024-03-23T17:31:05;11.35;;;9.13;;
40284;SDS011;25997;50.214;19.354;2024-03-23T17:34:15;14.85;;;11.90;;
40284;SDS011;25997;50.214;19.354;2024-03-23T17:37:20;15.82;;;12.90;;
40284;SDS011;25997;50.214;19.354;2024-03-23T17:40:24;20.65;;;15.13;;
40284;SDS011;25997;50.214;19.354;2024-03-23T17:43:27;21.05;;;16.50;;
40284;SDS011;25997;50.214;19.354;2024-03-23T17:46:28;18.70;;;15.40;;
40284;SDS011;25997;50.214;19.354;2024-03-23T17:49:30;17.20;;;14.07;;
40284;SDS011;25997;50.214;19.354;2024-03-23T17:52:32;16.02;;;14.45;;
40284;SDS011;25997;50.214;19.354;2024-03-23T17:55:36;19.05;;;15.18;;
40284;SDS011;25997;50.214;19.354;2024-03-23T17:58:39;15.95;;;14.35;;
40284;SDS011;25997;50.214;19.354;2024-03-23T18:01:40;19.40;;;17.25;;
40284;SDS011;25997;50.214;19.354;2024-03-23T18:04:43;20.50;;;18.73;;
40284;SDS011;25997;50.214;19.354;2024-03-23T18:07:44;17.20;;;14.40;;
40284;SDS011;25997;50.214;19.354;2024-03-23T18:10:48;12.65;;;11.45;;
40284;SDS011;25997;50.214;19.354;2024-03-23T18:13:51;12.65;;;11.35;;
40284;SDS011;25997;50.214;19.354;2024-03-23T18:16:53;14.63;;;13.23;;
40284;SDS011;25997;50.214;19.354;2024-03-23T18:19:55;15.98;;;14.45;;
40284;SDS011;25997;50.214;19.354;2024-03-23T18:22:57;13.80;;;12.18;;
40284;SDS011;25997;50.214;19.354;2024-03-23T18:26:01;11.57;;;9.95;;
40284;SDS011;25997;50.214;19.354;2024-03-23T18:29:04;13.60;;;11.63;;
40284;SDS011;25997;50.214;19.354;2024-03-23T18:32:07;14.45;;;12.57;;
40284;SDS011;25997;50.214;19.354;2024-03-23T18:35:08;10.48;;;9.43;;